Latest Weather Observations for Sydney Harbour

IDN60801

Issued at 3:33 pm EDT Tuesday 18 January 2022 (issued every 10 minutes, with the page automatically refreshed every 10 minutes)

About weather observations | Map of weather stations | Latest weather observations for NSW | Other Formats
Station Details ID: 066196 Name: WEDDING CAKE WEST Lat: -33.84 Lon: 151.26 Height: 6.0 m
Data from the previous 72 hours. | See also: Recent months at Sydney Harbour
Date/Time
EDT
Temp
°C
App
Temp
°C
Dew
Point
°C
Rel
Hum
%
Delta-T
°C
Wind Press
QNH
hPa
Press
MSL
hPa
Rain since
9am
mm
Dir  Spd
km/h
Gust
km/h
Spd
kts
Gust
kts
18/03:30pm 21.7 - - - - SSW 32 39 17 21 - - -
18/03:00pm 22.2 - - - - SSW 32 37 17 20 - - -
18/02:30pm 22.0 - - - - SSW 28 32 15 17 - - -
18/02:00pm 22.0 - - - - SSW 28 32 15 17 - - -
18/01:30pm 22.5 - - - - SSW 24 33 13 18 - - -
18/01:00pm 22.6 - - - - SSW 28 35 15 19 - - -
18/12:30pm 22.6 - - - - SSW 24 33 13 18 - - -
18/12:00pm 22.4 - - - - SSW 24 30 13 16 - - -
18/11:30am 22.2 - - - - SSW 28 35 15 19 - - -
18/11:00am 22.8 - - - - SSW 24 30 13 16 - - -
18/10:30am 22.7 - - - - SSW 28 33 15 18 - - -
18/10:00am 22.8 - - - - SSW 33 39 18 21 - - -
18/09:30am 22.8 - - - - SSW 30 37 16 20 - - -
18/09:00am 22.9 - - - - SSW 28 39 15 21 - - -
18/08:30am 23.0 - - - - SSW 28 32 15 17 - - -
18/08:00am 23.0 - - - - SSW 30 35 16 19 - - -
18/07:30am 23.1 - - - - SSW 28 33 15 18 - - -
18/07:00am 23.2 - - - - SSW 30 37 16 20 - - -
18/06:30am 23.2 - - - - SSW 28 39 15 21 - - -
18/06:00am 23.0 - - - - SSW 26 37 14 20 - - -
18/05:30am 23.6 - - - - SSW 24 33 13 18 - - -
18/05:00am 24.9 - - - - SSW 20 24 11 13 - - -
18/04:30am 25.4 - - - - SSW 15 15 8 8 - - -
18/04:00am 25.8 - - - - SW 17 20 9 11 - - -
18/03:30am 25.3 - - - - WSW 11 17 6 9 - - -
18/03:00am 25.7 - - - - WSW 13 15 7 8 - - -
18/02:30am 24.6 - - - - SSW 7 9 4 5 - - -
18/02:00am 23.8 - - - - NNE 4 6 2 3 - - -
18/01:30am 23.9 - - - - CALM 0 6 0 3 - - -
18/01:00am 23.9 - - - - NNE 2 7 1 4 - - -
18/12:30am 23.9 - - - - NNE 6 7 3 4 - - -
18/12:00am 23.9 - - - - NNE 6 7 3 4 - - -
 
Date/Time
EDT
Temp
°C
App
Temp
°C
Dew
Point
°C
Rel
Hum
%
Delta-T
°C
Wind Press
QNH
hPa
Press
MSL
hPa
Rain since
9am
mm
Dir  Spd
km/h
Gust
km/h
Spd
kts
Gust
kts
17/11:30pm 24.1 - - - - N 7 9 4 5 - - -
17/11:00pm 24.0 - - - - NNE 7 9 4 5 - - -
17/10:30pm 24.0 - - - - NE 6 7 3 4 - - -
17/10:00pm 24.1 - - - - NNE 9 11 5 6 - - -
17/09:30pm 24.5 - - - - NNE 11 13 6 7 - - -
17/09:00pm 25.1 - - - - N 15 20 8 11 - - -
17/08:30pm 25.3 - - - - N 19 24 10 13 - - -
17/08:00pm 25.3 - - - - N 17 19 9 10 - - -
17/07:30pm 24.8 - - - - NNE 19 22 10 12 - - -
17/07:00pm 24.5 - - - - NNE 17 20 9 11 - - -
17/06:30pm 24.4 - - - - NNE 20 26 11 14 - - -
17/06:00pm 24.5 - - - - NNE 20 24 11 13 - - -
17/05:30pm 24.5 - - - - NNE 22 26 12 14 - - -
17/05:00pm 24.9 - - - - NE 20 24 11 13 - - -
17/04:30pm 25.0 - - - - NNE 19 22 10 12 - - -
17/04:00pm 24.8 - - - - NE 24 26 13 14 - - -
17/03:30pm 24.6 - - - - ENE 24 28 13 15 - - -
17/03:00pm 24.4 - - - - ENE 22 26 12 14 - - -
17/02:30pm 24.2 - - - - ENE 20 26 11 14 - - -
17/02:00pm 24.1 - - - - ENE 26 30 14 16 - - -
17/01:30pm 23.9 - - - - ENE 24 28 13 15 - - -
17/01:00pm 24.2 - - - - ENE 19 24 10 13 - - -
17/12:30pm 23.9 - - - - ENE 22 26 12 14 - - -
17/12:00pm 24.4 - - - - ENE 15 19 8 10 - - -
17/11:30am 23.8 - - - - ENE 17 20 9 11 - - -
17/11:00am 23.6 - - - - ENE 17 20 9 11 - - -
17/10:30am 23.3 - - - - ENE 19 20 10 11 - - -
17/10:00am 24.3 - - - - NE 13 13 7 7 - - -
17/09:30am 23.9 - - - - NNE 11 13 6 7 - - -
17/09:00am 24.1 - - - - CALM 0 0 0 0 - - -
17/08:30am 23.6 - - - - CALM 0 0 0 0 - - -
17/08:00am 23.0 - - - - NNE 6 7 3 4 - - -
17/07:30am 23.0 - - - - CALM 0 0 0 0 - - -
17/07:00am 22.8 - - - - W 4 7 2 4 - - -
17/06:30am 22.7 - - - - S 9 9 5 5 - - -
17/06:00am 22.6 - - - - SW 6 7 3 4 - - -
17/05:30am 22.5 - - - - W 11 11 6 6 - - -
17/05:00am 22.5 - - - - W 9 9 5 5 - - -
17/04:30am 22.6 - - - - W 6 7 3 4 - - -
17/04:00am 22.9 - - - - WSW 9 11 5 6 - - -
17/03:30am 23.2 - - - - SW 11 13 6 7 - - -
17/03:00am 23.4 - - - - SSW 15 17 8 9 - - -
17/02:30am 23.6 - - - - WSW 15 19 8 10 - - -
17/02:00am 23.6 - - - - SW 15 17 8 9 - - -
17/01:30am 23.6 - - - - SW 17 17 9 9 - - -
17/01:00am 23.5 - - - - SW 17 20 9 11 - - -
17/12:30am 23.4 - - - - SSW 13 17 7 9 - - -
17/12:00am 23.4 - - - - SW 15 17 8 9 - - -
 
Date/Time
EDT
Temp
°C
App
Temp
°C
Dew
Point
°C
Rel
Hum
%
Delta-T
°C
Wind Press
QNH
hPa
Press
MSL
hPa
Rain since
9am
mm
Dir  Spd
km/h
Gust
km/h
Spd
kts
Gust
kts
16/11:30pm 23.6 - - - - SW 13 17 7 9 - - -
16/11:00pm 23.5 - - - - SSW 11 15 6 8 - - -
16/10:30pm 23.6 - - - - SSW 13 17 7 9 - - -
16/10:00pm 23.6 - - - - SW 15 19 8 10 - - -
16/09:30pm 23.7 - - - - S 17 20 9 11 - - -
16/09:00pm 23.9 - - - - S 17 22 9 12 - - -
16/08:30pm 24.0 - - - - S 17 20 9 11 - - -
16/08:00pm 23.8 - - - - S 20 24 11 13 - - -
16/07:30pm 24.1 - - - - S 19 24 10 13 - - -
16/07:00pm 24.4 - - - - S 20 24 11 13 - - -
16/06:30pm 24.5 - - - - SSE 19 26 10 14 - - -
16/06:00pm 24.4 - - - - SSE 22 30 12 16 - - -
16/05:30pm 24.1 - - - - SSE 26 37 14 20 - - -
16/05:00pm 24.3 - - - - SSE 26 37 14 20 - - -
16/04:30pm 24.2 - - - - S 28 37 15 20 - - -
16/04:00pm 23.8 - - - - S 30 35 16 19 - - -
16/03:30pm 24.8 - - - - S 28 35 15 19 - - -
16/03:00pm 24.7 - - - - SSE 32 39 17 21 - - -
16/02:30pm 25.1 - - - - SSE 26 35 14 19 - - -
16/02:00pm 25.2 - - - - SSE 26 32 14 17 - - -
16/01:30pm 24.8 - - - - S 26 32 14 17 - - -
16/01:00pm 24.8 - - - - S 30 37 16 20 - - -
16/12:30pm 24.8 - - - - SSE 30 37 16 20 - - -
16/12:00pm 24.9 - - - - SSW 24 32 13 17 - - -
16/11:30am 24.9 - - - - SSW 24 32 13 17 - - -
16/11:00am 24.7 - - - - SSW 30 39 16 21 - - -
16/10:30am 24.4 - - - - SSW 26 35 14 19 - - -
16/10:00am 24.0 - - - - SSW 28 33 15 18 - - -
16/09:30am 23.8 - - - - SSW 24 32 13 17 - - -
16/09:00am 23.6 - - - - SW 28 35 15 19 - - -
16/08:30am 23.5 - - - - SSW 28 32 15 17 - - -
16/08:00am 23.1 - - - - SSW 26 35 14 19 - - -
16/07:30am 22.9 - - - - SSW 24 32 13 17 - - -
16/07:00am 22.9 - - - - SSW 28 35 15 19 - - -
16/06:30am 22.7 - - - - SSW 30 35 16 19 - - -
16/06:00am 23.0 - - - - SSW 30 39 16 21 - - -
16/05:30am 22.7 - - - - S 30 37 16 20 - - -
16/05:00am 22.9 - - - - S 32 41 17 22 - - -
16/04:30am 23.1 - - - - SSW 28 35 15 19 - - -
16/04:00am 23.2 - - - - SSW 26 32 14 17 - - -
16/03:30am 23.9 - - - - SW 19 24 10 13 - - -
16/03:00am 22.7 - - - - WSW 9 11 5 6 - - -
16/02:30am 22.7 - - - - SE 4 9 2 5 - - -
16/02:00am 22.7 - - - - N 7 9 4 5 - - -
16/01:30am 23.1 - - - - NNE 9 13 5 7 - - -
16/01:00am 23.4 - - - - ENE 7 9 4 5 - - -
16/12:30am 23.7 - - - - N 13 17 7 9 - - -
16/12:00am 23.9 - - - - NNE 7 11 4 6 - - -
 
Date/Time
EDT
Temp
°C
App
Temp
°C
Dew
Point
°C
Rel
Hum
%
Delta-T
°C
Wind Press
QNH
hPa
Press
MSL
hPa
Rain since
9am
mm
Dir  Spd
km/h
Gust
km/h
Spd
kts
Gust
kts
15/11:30pm 24.2 - - - - NNE 7 9 4 5 - - -
15/11:00pm 25.3 - - - - SSE 6 9 3 5 - - -
15/10:30pm 25.7 - - - - WNW 9 17 5 9 - - -
15/10:00pm 25.2 - - - - WNW 13 17 7 9 - - -
15/09:30pm 24.1 - - - - NE 11 13 6 7 - - -
15/09:00pm 23.7 - - - - NNE 13 17 7 9 - - -
15/08:30pm 24.4 - - - - NNE 20 24 11 13 - - -
15/08:00pm 25.4 - - - - N 19 24 10 13 - - -
15/07:30pm 24.8 - - - - NE 17 22 9 12 - - -
15/07:00pm 24.4 - - - - NNE 20 24 11 13 - - -
15/06:30pm 24.2 - - - - NNE 35 43 19 23 - - -
15/06:00pm 24.1 - - - - NNE 28 33 15 18 - - -
15/05:30pm 24.1 - - - - NE 20 24 11 13 - - -
15/05:00pm 23.8 - - - - NNE 24 28 13 15 - - -
15/04:30pm 23.8 - - - - NE 22 28 12 15 - - -
15/04:00pm 23.6 - - - - NE 20 26 11 14 - - -

Other formats

Comma delimited format used in spreadsheet applications
http://www.bom.gov.au/fwo/IDN60801/IDN60801.95766.axf

JavaScript Object Notation format (JSON) in row-major order
http://www.bom.gov.au/fwo/IDN60801/IDN60801.95766.json

Data quality

Most of these data are generated automatically and are frequently updated. Quality checks on data are not normally performed. It is possible for incorrect values to appear. Refer to information at About Latest Weather Observations and please check the disclaimer before using these data.